createdAt,value
2023-04-23T00:01:14.314Z,59.78
2023-04-23T00:03:42.988Z,68.18
2023-04-23T00:06:11.138Z,67.72
2023-04-23T00:08:42.056Z,62.33
2023-04-23T00:11:09.985Z,63.67
2023-04-23T00:13:37.264Z,69.22
2023-04-23T00:16:04.714Z,65.88
2023-04-23T00:18:31.216Z,69.65
2023-04-23T00:20:57.687Z,72.63
2023-04-23T00:23:25.157Z,63.05
2023-04-23T00:25:51.755Z,67.85
2023-04-23T00:28:19.554Z,68.40
2023-04-23T00:30:47.284Z,72.25
2023-04-23T00:33:14.151Z,66.07
2023-04-23T00:35:40.829Z,63.97
2023-04-23T00:38:07.295Z,60.17
2023-04-23T00:40:33.692Z,63.85
2023-04-23T00:43:01.093Z,67.32
2023-04-23T00:45:27.745Z,67.15
2023-04-23T00:47:54.760Z,65.43
2023-04-23T00:50:21.482Z,71.65
2023-04-23T00:52:47.939Z,76.03
2023-04-23T00:55:14.453Z,70.45
2023-04-23T00:57:42.331Z,76.18
2023-04-23T01:00:09.735Z,72.00
2023-04-23T01:02:37.643Z,70.95
2023-04-23T01:05:05.253Z,70.40
2023-04-23T01:07:34.271Z,75.43
2023-04-23T01:10:00.916Z,71.82
2023-04-23T01:12:27.384Z,75.00
2023-04-23T01:14:53.920Z,68.15
2023-04-23T01:17:20.317Z,71.47
2023-04-23T01:19:46.914Z,70.53
2023-04-23T01:22:15.575Z,80.80
2023-04-23T01:24:43.141Z,74.85
2023-04-23T01:27:11.009Z,70.00
2023-04-23T01:29:39.374Z,76.07
2023-04-23T01:32:07.241Z,76.10
2023-04-23T01:34:35.348Z,73.15
2023-04-23T01:37:03.999Z,69.85
2023-04-23T01:39:30.925Z,73.63
2023-04-23T01:41:58.269Z,71.60
2023-04-23T01:44:24.975Z,68.50
2023-04-23T01:46:51.640Z,69.20
2023-04-23T01:49:18.182Z,72.85
2023-04-23T01:51:44.797Z,65.93
2023-04-23T01:54:11.389Z,68.78
2023-04-23T01:56:37.830Z,63.00
2023-04-23T01:59:04.331Z,70.50
2023-04-23T02:01:51.121Z,67.72
2023-04-23T02:04:18.150Z,66.13
2023-04-23T02:06:49.456Z,68.88
2023-04-23T02:09:15.961Z,67.18
2023-04-23T02:11:42.714Z,69.55
2023-04-23T02:14:10.273Z,66.75
2023-04-23T02:16:36.747Z,63.97
2023-04-23T02:19:03.811Z,63.13
2023-04-23T02:21:30.273Z,65.47
2023-04-23T02:23:57.410Z,63.63
2023-04-23T02:26:25.120Z,67.65
2023-04-23T02:28:51.880Z,67.57
2023-04-23T02:31:20.503Z,65.45
2023-04-23T02:33:47.108Z,63.78
2023-04-23T02:36:13.773Z,67.20
2023-04-23T02:38:44.946Z,69.10
2023-04-23T02:41:12.156Z,66.30
2023-04-23T02:43:38.681Z,67.13
2023-04-23T02:46:08.518Z,66.68
2023-04-23T02:48:42.190Z,62.53
2023-04-23T02:51:10.737Z,60.17
2023-04-23T02:53:37.332Z,66.28
2023-04-23T02:56:04.043Z,64.68
2023-04-23T02:58:30.957Z,67.22
2023-04-23T03:00:57.792Z,65.03
2023-04-23T03:03:26.721Z,61.45
2023-04-23T03:05:54.856Z,61.78
2023-04-23T03:08:21.796Z,62.38
2023-04-23T03:10:48.411Z,64.60
2023-04-23T03:13:15.005Z,61.10
2023-04-23T03:15:42.231Z,58.90
2023-04-23T03:18:08.689Z,56.75
2023-04-23T03:20:35.812Z,59.25
2023-04-23T03:23:02.557Z,56.53
2023-04-23T03:25:28.975Z,60.75
2023-04-23T03:27:58.091Z,53.72
2023-04-23T03:30:24.775Z,54.75
2023-04-23T03:32:52.926Z,52.25
2023-04-23T03:35:19.535Z,50.85
2023-04-23T03:37:45.907Z,52.63
2023-04-23T03:40:12.560Z,48.13
2023-04-23T03:42:39.002Z,47.03
2023-04-23T03:45:06.138Z,48.17
2023-04-23T03:47:32.651Z,47.35
2023-04-23T03:49:59.115Z,46.40
2023-04-23T03:52:28.007Z,44.80
2023-04-23T03:54:54.633Z,44.10
2023-04-23T03:57:21.562Z,45.25
2023-04-23T03:59:47.970Z,43.55
2023-04-23T04:02:14.665Z,45.83
2023-04-23T04:04:43.075Z,46.35
2023-04-23T04:07:11.990Z,48.15
2023-04-23T04:09:39.084Z,48.15
2023-04-23T04:12:06.345Z,46.08
2023-04-23T04:14:32.944Z,47.35
2023-04-23T04:16:59.353Z,46.38
2023-04-23T04:19:25.893Z,48.40
2023-04-23T04:21:52.396Z,46.97
2023-04-23T04:24:18.964Z,49.30
2023-04-23T04:26:46.161Z,47.70
2023-04-23T04:29:12.609Z,46.25
2023-04-23T04:31:39.208Z,41.10
2023-04-23T04:34:07.324Z,43.42
2023-04-23T04:36:35.126Z,45.53
2023-04-23T04:39:03.407Z,40.92
2023-04-23T04:41:29.897Z,43.85
2023-04-23T04:43:56.825Z,45.25
2023-04-23T04:46:23.518Z,42.53
2023-04-23T04:48:50.218Z,46.22
2023-04-23T04:51:16.644Z,40.78
2023-04-23T04:53:43.181Z,42.88
2023-04-23T04:56:09.880Z,38.17
2023-04-23T04:58:36.439Z,40.78
2023-04-23T05:01:03.008Z,42.72
2023-04-23T05:03:29.661Z,42.05
2023-04-23T05:05:56.498Z,40.25
2023-04-23T05:08:23.004Z,39.50
2023-04-23T05:10:52.089Z,38.05
2023-04-23T05:13:18.487Z,36.97
2023-04-23T05:15:46.355Z,38.08
2023-04-23T05:18:12.792Z,40.80
2023-04-23T05:20:39.350Z,37.28
2023-04-23T05:23:06.061Z,40.53
2023-04-23T05:25:34.424Z,38.45
2023-04-23T05:28:00.979Z,37.47
2023-04-23T05:30:27.403Z,38.08
2023-04-23T05:32:53.856Z,38.40
2023-04-23T05:35:20.636Z,37.88
2023-04-23T05:37:47.007Z,36.30
2023-04-23T05:40:13.507Z,37.15
2023-04-23T05:42:39.941Z,38.45
2023-04-23T05:45:08.767Z,36.40
2023-04-23T05:47:35.789Z,39.05
2023-04-23T05:50:02.653Z,35.80
2023-04-23T05:52:31.495Z,38.05
2023-04-23T05:54:58.172Z,34.20
2023-04-23T05:57:24.542Z,36.15
2023-04-23T05:59:51.059Z,34.70
2023-04-23T06:02:17.592Z,35.97
2023-04-23T06:04:44.562Z,34.50
2023-04-23T06:07:12.460Z,34.47
2023-04-23T06:09:38.913Z,33.83
2023-04-23T06:12:06.023Z,33.22
2023-04-23T06:14:32.727Z,32.15
2023-04-23T06:16:59.110Z,33.38
2023-04-23T06:19:28.075Z,34.03
2023-04-23T06:21:54.667Z,36.45
2023-04-23T06:24:21.240Z,33.05
2023-04-23T06:26:48.067Z,31.55
2023-04-23T06:29:14.461Z,29.52
2023-04-23T06:31:41.894Z,28.65
2023-04-23T06:34:08.358Z,31.88
2023-04-23T06:36:35.182Z,29.33
2023-04-23T06:39:01.695Z,26.63
2023-04-23T06:41:29.357Z,31.52
2023-04-23T06:43:55.894Z,29.23
2023-04-23T06:46:22.557Z,26.48
2023-04-23T06:48:49.020Z,27.17
2023-04-23T06:51:16.110Z,26.15
2023-04-23T06:53:42.666Z,24.88
2023-04-23T06:56:09.147Z,24.15
2023-04-23T06:58:35.542Z,26.33
2023-04-23T07:01:05.502Z,23.42
2023-04-23T07:03:31.981Z,23.85
2023-04-23T07:05:58.382Z,22.13
2023-04-23T07:08:24.941Z,23.02
2023-04-23T07:10:51.815Z,20.90
2023-04-23T07:13:18.257Z,21.20
2023-04-23T07:15:44.875Z,22.42
2023-04-23T07:18:11.327Z,20.33
2023-04-23T07:20:37.839Z,20.08
2023-04-23T07:23:04.761Z,20.63
2023-04-23T07:25:32.131Z,18.67
2023-04-23T07:27:58.759Z,18.48
2023-04-23T07:30:26.604Z,19.15
2023-04-23T07:32:53.721Z,18.42
2023-04-23T07:35:20.337Z,15.75
2023-04-23T07:37:46.878Z,18.27
2023-04-23T07:40:13.388Z,18.52
2023-04-23T07:42:40.018Z,15.70
2023-04-23T07:45:07.266Z,14.18
2023-04-23T07:47:33.685Z,18.85
2023-04-23T07:50:00.300Z,17.38
2023-04-23T07:52:26.816Z,15.00
2023-04-23T07:54:53.200Z,15.18
2023-04-23T07:57:19.654Z,14.57
2023-04-23T07:59:46.113Z,16.58
2023-04-23T08:02:12.580Z,16.77
2023-04-23T08:04:39.281Z,17.10
2023-04-23T08:07:05.754Z,11.25
2023-04-23T08:09:32.207Z,15.40
2023-04-23T08:11:58.581Z,14.73
2023-04-23T08:14:27.948Z,13.15
2023-04-23T08:16:54.410Z,14.00
2023-04-23T08:19:20.866Z,11.25
2023-04-23T08:21:47.398Z,14.50
2023-04-23T08:24:13.805Z,12.57
2023-04-23T08:26:40.446Z,15.10
2023-04-23T08:29:06.868Z,11.70
2023-04-23T08:31:33.442Z,11.98
2023-04-23T08:34:00.143Z,13.50
2023-04-23T08:36:27.618Z,12.48
2023-04-23T08:38:54.148Z,13.20
2023-04-23T08:41:23.462Z,13.43
2023-04-23T08:44:11.101Z,12.20
2023-04-23T08:46:41.649Z,12.43
2023-04-23T08:49:09.202Z,10.18
2023-04-23T08:51:42.089Z,13.00
2023-04-23T08:54:15.240Z,12.43
2023-04-23T08:56:42.564Z,12.63
2023-04-23T08:59:08.997Z,11.32
2023-04-23T09:01:35.944Z,12.10
2023-04-23T09:04:02.852Z,12.48
2023-04-23T09:06:32.226Z,14.20
2023-04-23T09:08:59.426Z,12.45
2023-04-23T09:11:27.292Z,9.65
2023-04-23T09:13:54.098Z,11.38
2023-04-23T09:16:20.669Z,10.98
2023-04-23T09:18:47.207Z,11.40
2023-04-23T09:21:14.226Z,11.48
2023-04-23T09:23:41.378Z,10.10
2023-04-23T09:26:08.304Z,8.43
2023-04-23T09:28:36.380Z,9.95
2023-04-23T09:31:06.095Z,11.90
2023-04-23T09:33:35.655Z,9.07
2023-04-23T09:36:15.545Z,10.50
2023-04-23T09:38:41.961Z,8.52
2023-04-23T09:41:25.772Z,11.35
2023-04-23T09:43:56.610Z,7.63
2023-04-23T09:46:41.476Z,12.52
2023-04-23T09:49:10.408Z,9.75
2023-04-23T09:51:41.798Z,7.95
2023-04-23T09:54:21.593Z,9.98
2023-04-23T09:56:56.797Z,8.07
2023-04-23T09:59:39.554Z,8.85
2023-04-23T10:02:13.193Z,7.97
2023-04-23T10:04:40.501Z,8.50
2023-04-23T10:07:18.798Z,8.30
2023-04-23T10:09:47.287Z,8.00
2023-04-23T10:14:49.538Z,9.35
2023-04-23T10:17:16.912Z,10.23
2023-04-23T10:19:44.559Z,8.23
2023-04-23T10:24:47.189Z,8.38
2023-04-23T10:30:01.061Z,8.93
2023-04-23T10:32:28.215Z,6.07
2023-04-23T10:34:58.262Z,6.95
2023-04-23T10:37:25.050Z,11.02
2023-04-23T10:39:56.055Z,10.20
2023-04-23T10:42:23.552Z,5.65
2023-04-23T10:45:07.221Z,8.10
2023-04-23T10:47:37.924Z,9.02
2023-04-23T10:50:31.151Z,8.50
2023-04-23T10:52:58.677Z,7.90
2023-04-23T10:55:30.811Z,8.02
2023-04-23T10:58:02.642Z,7.60
2023-04-23T11:00:45.363Z,8.52
2023-04-23T11:03:43.960Z,9.60
2023-04-23T11:06:15.641Z,8.50
2023-04-23T11:09:01.884Z,9.13
2023-04-23T11:11:58.183Z,6.38
2023-04-23T11:14:37.657Z,6.97
2023-04-23T11:17:05.509Z,6.70
2023-04-23T11:19:35.304Z,10.60
2023-04-23T11:22:08.022Z,7.80
2023-04-23T11:24:37.422Z,8.38
2023-04-23T11:27:08.612Z,7.35
2023-04-23T11:29:37.566Z,9.98
2023-04-23T11:32:05.536Z,6.90
2023-04-23T11:34:33.798Z,6.10
2023-04-23T11:37:01.343Z,7.13
2023-04-23T11:39:28.278Z,6.25
2023-04-23T11:41:54.938Z,7.50
2023-04-23T11:44:26.349Z,7.90
2023-04-23T11:46:57.053Z,7.47
2023-04-23T11:49:27.939Z,8.15
2023-04-23T11:51:54.530Z,5.70
2023-04-23T11:54:28.356Z,5.57
2023-04-23T11:56:55.573Z,5.95
2023-04-23T11:59:22.797Z,7.50
2023-04-23T12:01:53.313Z,8.07
2023-04-23T12:06:49.913Z,6.80
2023-04-23T12:09:18.123Z,7.78
2023-04-23T12:11:45.669Z,5.18
2023-04-23T12:14:14.476Z,5.93
2023-04-23T12:16:45.820Z,4.90
2023-04-23T12:19:18.927Z,6.18
2023-04-23T12:21:56.491Z,6.47
2023-04-23T12:24:31.332Z,4.72
2023-04-23T12:27:02.710Z,5.60
2023-04-23T12:29:30.875Z,7.00
2023-04-23T12:31:59.542Z,5.80
2023-04-23T12:34:26.275Z,6.18
2023-04-23T12:36:55.691Z,5.13
2023-04-23T12:39:32.234Z,4.70
2023-04-23T12:42:04.989Z,8.80
2023-04-23T12:44:36.113Z,3.97
2023-04-23T12:47:07.750Z,4.80
2023-04-23T12:49:36.277Z,4.97
2023-04-23T12:52:04.416Z,4.00
2023-04-23T12:54:37.898Z,5.18
2023-04-23T12:57:06.065Z,5.72
2023-04-23T12:59:33.466Z,5.28
2023-04-23T13:02:02.301Z,5.43
2023-04-23T13:04:31.408Z,5.35
2023-04-23T13:06:57.804Z,5.15
2023-04-23T13:09:26.814Z,4.65
2023-04-23T13:11:54.372Z,5.63
2023-04-23T13:14:21.607Z,5.63
2023-04-23T13:16:48.831Z,5.20
2023-04-23T13:19:16.929Z,5.43
2023-04-23T13:21:43.682Z,6.03
2023-04-23T13:24:10.078Z,5.15
2023-04-23T13:26:37.172Z,5.65
2023-04-23T13:29:03.924Z,5.72
2023-04-23T13:31:31.386Z,3.30
2023-04-23T13:33:58.075Z,6.13
2023-04-23T13:36:25.768Z,6.30
2023-04-23T13:38:52.250Z,5.40
2023-04-23T13:41:18.665Z,7.25
2023-04-23T13:43:45.176Z,5.28
2023-04-23T13:46:12.106Z,5.03
2023-04-23T13:48:38.592Z,4.68
2023-04-23T13:51:10.873Z,5.82
2023-04-23T13:53:43.604Z,3.92
2023-04-23T13:56:10.344Z,5.53
2023-04-23T13:58:36.857Z,4.78
2023-04-23T14:01:04.415Z,4.22
2023-04-23T14:03:31.011Z,3.85
2023-04-23T14:05:58.631Z,5.82
2023-04-23T14:08:28.084Z,4.78
2023-04-23T14:10:54.511Z,3.28
2023-04-23T14:13:22.762Z,4.25
2023-04-23T14:15:49.386Z,5.80
2023-04-23T14:18:16.089Z,4.53
2023-04-23T14:20:42.506Z,4.70
2023-04-23T14:23:32.911Z,6.55
2023-04-23T14:26:06.699Z,6.35
2023-04-23T14:28:44.648Z,6.95
2023-04-23T14:31:11.091Z,7.03
2023-04-23T14:33:37.581Z,3.92
2023-04-23T14:36:04.359Z,4.18
2023-04-23T14:38:30.842Z,5.00
2023-04-23T14:40:57.250Z,7.68
2023-04-23T14:43:23.685Z,5.65
2023-04-23T14:45:51.015Z,3.05
2023-04-23T14:48:17.478Z,4.20
2023-04-23T14:50:43.950Z,6.35
2023-04-23T14:53:10.670Z,6.55
2023-04-23T14:55:38.673Z,7.15
2023-04-23T14:58:05.208Z,8.13
2023-04-23T15:00:31.769Z,5.10
2023-04-23T15:02:58.362Z,6.35
2023-04-23T15:05:27.950Z,8.50
2023-04-23T15:07:54.431Z,7.63
2023-04-23T15:10:23.224Z,4.43
2023-04-23T15:13:00.034Z,7.80
2023-04-23T15:15:43.927Z,6.60
2023-04-23T15:18:15.614Z,6.97
2023-04-23T15:23:09.643Z,5.55
2023-04-23T15:25:39.390Z,8.23
2023-04-23T15:28:07.049Z,7.15
2023-04-23T15:30:33.590Z,6.28
2023-04-23T15:33:00.242Z,7.68
2023-04-23T15:35:27.622Z,5.00
2023-04-23T15:37:54.430Z,5.88
2023-04-23T15:40:20.914Z,4.88
2023-04-23T15:42:49.417Z,7.20
2023-04-23T15:45:16.780Z,5.88
2023-04-23T15:47:43.277Z,5.53
2023-04-23T15:50:10.796Z,5.55
2023-04-23T15:52:37.953Z,7.22
2023-04-23T15:55:05.592Z,5.70
2023-04-23T15:57:32.086Z,7.80
2023-04-23T15:59:58.718Z,8.95
2023-04-23T16:02:28.965Z,7.80
2023-04-23T16:04:58.583Z,6.60
2023-04-23T16:07:27.810Z,6.50
2023-04-23T16:09:54.238Z,5.20
2023-04-23T16:12:20.741Z,6.15
2023-04-23T16:14:47.458Z,6.50
2023-04-23T16:17:13.943Z,6.13
2023-04-23T16:19:40.747Z,4.80
2023-04-23T16:22:07.298Z,4.82
2023-04-23T16:24:33.841Z,9.65
2023-04-23T16:27:02.289Z,4.72
2023-04-23T16:29:29.050Z,5.57
2023-04-23T16:31:58.552Z,7.60
2023-04-23T16:34:28.038Z,6.68
2023-04-23T16:36:56.577Z,5.15
2023-04-23T16:39:23.079Z,3.55
2023-04-23T16:41:49.484Z,5.40
2023-04-23T16:44:16.064Z,6.47
2023-04-23T16:46:42.669Z,4.70
2023-04-23T16:49:09.340Z,6.45
2023-04-23T16:51:35.790Z,5.07
2023-04-23T16:54:02.179Z,3.35
2023-04-23T16:56:28.909Z,4.53
2023-04-23T16:58:58.839Z,5.43
2023-04-23T17:01:27.399Z,12.57
2023-04-23T17:03:54.089Z,10.27
2023-04-23T17:06:29.390Z,9.52
2023-04-23T17:08:57.831Z,6.55
2023-04-23T17:11:28.238Z,9.18
2023-04-23T17:13:56.096Z,5.63
2023-04-23T17:16:26.632Z,4.93
2023-04-23T17:21:23.242Z,6.38
2023-04-23T17:23:49.857Z,5.82
2023-04-23T17:26:16.758Z,5.25
2023-04-23T17:28:43.294Z,9.90
2023-04-23T17:31:09.898Z,5.32
2023-04-23T17:33:36.408Z,4.85
2023-04-23T17:36:03.391Z,4.72
2023-04-23T17:38:30.013Z,5.20
2023-04-23T17:40:56.617Z,7.35
2023-04-23T17:43:23.247Z,4.15
2023-04-23T17:45:50.123Z,5.55
2023-04-23T17:48:16.622Z,5.10
2023-04-23T17:50:43.749Z,7.32
2023-04-23T17:53:10.567Z,17.48
2023-04-23T17:55:37.375Z,6.20
2023-04-23T17:58:06.653Z,9.10
2023-04-23T18:00:37.199Z,6.32
2023-04-23T18:03:04.173Z,6.28
2023-04-23T18:05:31.372Z,5.60
2023-04-23T18:07:57.984Z,6.10
2023-04-23T18:10:26.017Z,7.97
2023-04-23T18:12:52.622Z,7.88
2023-04-23T18:15:19.450Z,6.72
2023-04-23T18:17:47.416Z,7.70
2023-04-23T18:20:14.270Z,6.43
2023-04-23T18:22:42.204Z,7.45
2023-04-23T18:25:12.736Z,12.57
2023-04-23T18:27:39.644Z,9.95
2023-04-23T18:30:08.255Z,7.68
2023-04-23T18:32:40.072Z,7.55
2023-04-23T18:35:08.952Z,8.82
2023-04-23T18:37:42.828Z,9.27
2023-04-23T18:40:10.299Z,5.95
2023-04-23T18:42:36.864Z,6.10
2023-04-23T18:45:04.472Z,8.82
2023-04-23T18:47:36.856Z,6.88
2023-04-23T18:50:09.129Z,8.07
2023-04-23T18:52:36.265Z,6.53
2023-04-23T18:55:03.254Z,6.60
2023-04-23T18:57:29.676Z,9.45
2023-04-23T18:59:58.448Z,7.75
2023-04-23T19:02:35.285Z,6.57
2023-04-23T19:05:02.997Z,7.00
2023-04-23T19:07:29.554Z,5.95
2023-04-23T19:09:55.986Z,7.35
2023-04-23T19:12:22.333Z,6.32
2023-04-23T19:14:49.144Z,6.07
2023-04-23T19:17:18.487Z,5.10
2023-04-23T19:19:47.685Z,5.05
2023-04-23T19:22:14.146Z,5.97
2023-04-23T19:24:40.871Z,5.13
2023-04-23T19:27:07.554Z,7.43
2023-04-23T19:29:33.975Z,6.55
2023-04-23T19:32:00.795Z,7.22
2023-04-23T19:34:27.707Z,6.40
2023-04-23T19:36:54.102Z,7.05
2023-04-23T19:39:23.206Z,6.15
2023-04-23T19:41:49.670Z,7.18
2023-04-23T19:44:16.502Z,7.05
2023-04-23T19:46:42.982Z,6.88
2023-04-23T19:49:09.637Z,8.18
2023-04-23T19:51:38.006Z,5.38
2023-04-23T19:54:05.291Z,6.43
2023-04-23T19:56:31.819Z,5.72
2023-04-23T19:58:58.326Z,5.28
2023-04-23T20:01:28.026Z,7.70
2023-04-23T20:03:56.469Z,5.05
2023-04-23T20:06:23.425Z,6.60
2023-04-23T20:09:07.217Z,7.70
2023-04-23T20:11:37.117Z,5.68
2023-04-23T20:14:03.843Z,6.70
2023-04-23T20:16:30.729Z,7.90
2023-04-23T20:18:57.670Z,8.70
2023-04-23T20:21:24.829Z,7.45
2023-04-23T20:23:51.443Z,7.50
2023-04-23T20:26:19.210Z,7.90
2023-04-23T20:28:47.329Z,7.03
2023-04-23T20:31:14.739Z,4.82
2023-04-23T20:33:41.384Z,7.97
2023-04-23T20:36:11.340Z,5.57
2023-04-23T20:38:38.967Z,6.45
2023-04-23T20:41:05.955Z,5.53
2023-04-23T20:43:34.978Z,4.95
2023-04-23T20:46:02.456Z,4.18
2023-04-23T20:48:30.087Z,5.57
2023-04-23T20:50:57.503Z,4.72
2023-04-23T20:53:26.853Z,4.53
2023-04-23T20:55:53.674Z,5.70
2023-04-23T20:58:20.096Z,6.10
2023-04-23T21:00:46.554Z,4.45
2023-04-23T21:03:13.136Z,5.72
2023-04-23T21:05:44.130Z,4.88
2023-04-23T21:08:11.597Z,4.70
2023-04-23T21:10:38.762Z,3.95
2023-04-23T21:13:07.171Z,5.70
2023-04-23T21:15:35.268Z,1.88
2023-04-23T21:18:02.791Z,3.15
2023-04-23T21:20:29.472Z,1.98
2023-04-23T21:22:55.894Z,4.40
2023-04-23T21:25:22.651Z,1.73
2023-04-23T21:27:51.822Z,1.50
2023-04-23T21:30:28.438Z,1.65
2023-04-23T21:32:58.568Z,2.38
2023-04-23T21:35:28.225Z,1.55
2023-04-23T21:37:54.661Z,1.90
2023-04-23T21:40:21.223Z,1.77
2023-04-23T21:42:47.751Z,1.63
2023-04-23T21:45:14.264Z,1.15
2023-04-23T21:47:41.525Z,1.50
2023-04-23T21:50:09.855Z,1.63
2023-04-23T21:52:39.254Z,2.13
2023-04-23T21:55:06.370Z,1.90
2023-04-23T21:57:33.523Z,2.20
2023-04-23T22:00:00.079Z,1.48
2023-04-23T22:02:27.142Z,3.70
2023-04-23T22:04:53.917Z,1.58
2023-04-23T22:07:20.770Z,3.47
2023-04-23T22:09:47.178Z,2.55
2023-04-23T22:12:13.559Z,2.97
2023-04-23T22:14:40.386Z,3.88
2023-04-23T22:17:07.539Z,1.85
2023-04-23T22:19:34.079Z,2.28
2023-04-23T22:22:00.510Z,3.90
2023-04-23T22:24:27.139Z,2.13
2023-04-23T22:26:55.495Z,2.22
2023-04-23T22:29:22.002Z,2.75
2023-04-23T22:31:48.441Z,3.08
2023-04-23T22:34:14.989Z,3.53
2023-04-23T22:36:43.134Z,3.15
2023-04-23T22:39:10.756Z,3.20
2023-04-23T22:41:38.782Z,4.88
2023-04-23T22:44:05.173Z,4.22
2023-04-23T22:46:31.724Z,4.55
2023-04-23T22:49:01.194Z,5.07
2023-04-23T22:51:27.679Z,6.93
2023-04-23T22:53:55.603Z,8.27
2023-04-23T22:56:22.162Z,9.63
2023-04-23T22:58:48.656Z,11.10
2023-04-23T23:01:15.335Z,7.00
2023-04-23T23:03:41.805Z,7.28
2023-04-23T23:06:08.446Z,5.13
2023-04-23T23:08:34.877Z,4.00
2023-04-23T23:11:01.320Z,4.28
2023-04-23T23:13:28.980Z,5.97
2023-04-23T23:16:02.320Z,4.60
2023-04-23T23:18:28.881Z,4.28
2023-04-23T23:20:58.387Z,4.88
2023-04-23T23:23:24.903Z,3.80
2023-04-23T23:25:51.387Z,6.13
2023-04-23T23:28:17.769Z,4.57
2023-04-23T23:30:44.231Z,3.67
2023-04-23T23:33:10.860Z,4.97
2023-04-23T23:35:37.417Z,4.72
2023-04-23T23:38:03.851Z,5.75
2023-04-23T23:40:30.312Z,5.20
2023-04-23T23:42:56.849Z,3.90
2023-04-23T23:45:23.639Z,3.75
2023-04-23T23:47:50.286Z,4.90
2023-04-23T23:50:17.314Z,3.75
2023-04-23T23:52:43.743Z,3.85
2023-04-23T23:55:10.886Z,2.55
2023-04-23T23:57:37.539Z,3.20
